Time;durP1;ratioP1;P1;durP2;ratioP2;P2;SDS_P1;SDS_P2;PMS_P1;PMS_P2;Temp;Humidity;BMP_temperature;BMP_pressure;BME280_temperature;BME280_humidity;BME280_pressure;Samples;Min_cycle;Max_cycle;Signal;HPM_P1;HPM_P2
2022/01/29 00:02:01;;;;;;;45.10;25.90;;;;;;;;;;5124413;27;20039;-79
2022/01/29 00:04:27;;;;;;;39.13;24.63;;;;;;;;;;5128797;27;20493;-79
2022/01/29 00:06:54;;;;;;;42.50;27.30;;;;;;;;;;5114970;28;20473;-79
2022/01/29 00:09:20;;;;;;;44.00;26.90;;;;;;;;;;5112498;28;20086;-79
2022/01/29 00:11:46;;;;;;;40.05;26.95;;;;;;;;;;5122913;27;20066;-79
2022/01/29 00:14:12;;;;;;;45.88;25.95;;;;;;;;;;5124973;27;20487;-79
2022/01/29 00:16:40;;;;;;;44.63;26.80;;;;;;;;;;5114949;27;20054;-80
2022/01/29 00:19:07;;;;;;;42.22;27.23;;;;;;;;;;5126403;27;20052;-80
2022/01/29 00:21:33;;;;;;;45.70;28.42;;;;;;;;;;5125080;27;20039;-79
2022/01/29 00:24:00;;;;;;;44.35;28.42;;;;;;;;;;5115057;28;20041;-79
2022/01/29 00:26:27;;;;;;;48.58;29.73;;;;;;;;;;5131462;27;20508;-79
2022/01/29 00:28:55;;;;;;;42.47;27.85;;;;;;;;;;5115590;28;20035;-79
2022/01/29 00:31:21;;;;;;;47.13;30.65;;;;;;;;;;5130475;28;20043;-80
2022/01/29 00:33:47;;;;;;;46.78;30.92;;;;;;;;;;5131838;28;20127;-80
2022/01/29 00:36:14;;;;;;;50.30;32.95;;;;;;;;;;5113261;28;20035;-79
2022/01/29 00:38:40;;;;;;;50.15;30.00;;;;;;;;;;5112767;28;20118;-79
2022/01/29 00:41:06;;;;;;;48.95;31.98;;;;;;;;;;5116082;28;20084;-80
2022/01/29 00:43:34;;;;;;;48.78;33.35;;;;;;;;;;5113221;28;20476;-80
2022/01/29 00:46:00;;;;;;;51.55;32.58;;;;;;;;;;5113064;28;20427;-79
2022/01/29 00:48:26;;;;;;;47.33;32.05;;;;;;;;;;5112518;28;20472;-79
2022/01/29 00:50:53;;;;;;;49.08;32.70;;;;;;;;;;5112548;28;20043;-79
2022/01/29 00:53:19;;;;;;;50.10;31.63;;;;;;;;;;5113205;28;20039;-79
2022/01/29 00:55:45;;;;;;;53.33;32.58;;;;;;;;;;5112531;28;20092;-80
2022/01/29 00:58:11;;;;;;;50.97;34.92;;;;;;;;;;5112571;28;20051;-79
2022/01/29 01:00:38;;;;;;;54.28;34.70;;;;;;;;;;5112757;28;20094;-79
2022/01/29 01:03:04;;;;;;;51.55;35.25;;;;;;;;;;5112813;28;20035;-79
2022/01/29 01:05:30;;;;;;;52.35;36.08;;;;;;;;;;5112809;28;20451;-78
2022/01/29 01:07:56;;;;;;;48.85;34.95;;;;;;;;;;5112759;28;20095;-79
2022/01/29 01:10:23;;;;;;;47.97;33.13;;;;;;;;;;5094383;28;20040;-78
2022/01/29 01:12:49;;;;;;;55.92;36.28;;;;;;;;;;5112789;28;20047;-79
2022/01/29 01:15:15;;;;;;;53.97;37.33;;;;;;;;;;5094521;28;20049;-79
2022/01/29 01:17:42;;;;;;;57.67;36.17;;;;;;;;;;5112449;28;20035;-79
2022/01/29 01:20:09;;;;;;;49.95;36.38;;;;;;;;;;5112580;28;20105;-80
2022/01/29 01:22:35;;;;;;;50.83;34.53;;;;;;;;;;5115544;28;20131;-80
2022/01/29 01:25:01;;;;;;;45.95;32.22;;;;;;;;;;5098057;28;20050;-80
2022/01/29 01:27:27;;;;;;;55.10;36.13;;;;;;;;;;5116354;28;20130;-79
2022/01/29 01:29:54;;;;;;;49.10;34.25;;;;;;;;;;5098342;28;20177;-79
2022/01/29 01:32:20;;;;;;;52.55;36.13;;;;;;;;;;5116097;28;20082;-79
2022/01/29 01:34:50;;;;;;;55.17;37.35;;;;;;;;;;5116017;28;20083;-79
2022/01/29 01:37:31;;;;;;;53.30;35.08;;;;;;;;;;5116022;28;20043;-79
2022/01/29 01:39:58;;;;;;;53.45;34.58;;;;;;;;;;5116368;28;20050;-79
2022/01/29 01:42:24;;;;;;;60.65;37.78;;;;;;;;;;5116182;28;20196;-79
2022/01/29 01:44:52;;;;;;;53.15;34.90;;;;;;;;;;5115735;28;20532;-79
2022/01/29 01:47:18;;;;;;;51.22;34.70;;;;;;;;;;5115915;28;20511;-80
2022/01/29 01:49:45;;;;;;;50.30;34.42;;;;;;;;;;5115751;28;20043;-79
2022/01/29 01:52:12;;;;;;;43.20;28.95;;;;;;;;;;5115864;28;20055;-79
2022/01/29 01:54:39;;;;;;;53.30;33.53;;;;;;;;;;5115672;28;20043;-79
2022/01/29 01:57:05;;;;;;;53.20;34.47;;;;;;;;;;5115580;28;20126;-80
2022/01/29 01:59:31;;;;;;;45.10;32.58;;;;;;;;;;5115794;28;20051;-80
2022/01/29 02:01:58;;;;;;;51.75;34.85;;;;;;;;;;5115667;28;20042;-79
2022/01/29 02:04:24;;;;;;;53.58;35.25;;;;;;;;;;5115481;28;20043;-79
2022/01/29 02:06:50;;;;;;;56.30;34.42;;;;;;;;;;5097303;28;20046;-77
2022/01/29 02:09:19;;;;;;;49.00;34.65;;;;;;;;;;5115602;28;20035;-78
2022/01/29 02:11:52;;;;;;;48.53;34.33;;;;;;;;;;5115557;28;20047;-78
2022/01/29 02:14:19;;;;;;;47.78;33.13;;;;;;;;;;5115366;28;20039;-79
2022/01/29 02:16:45;;;;;;;51.53;34.10;;;;;;;;;;5115242;28;20181;-79
2022/01/29 02:19:12;;;;;;;52.33;32.50;;;;;;;;;;5097106;28;20171;-79
2022/01/29 02:21:38;;;;;;;53.25;34.58;;;;;;;;;;5115380;28;20506;-80
2022/01/29 02:24:04;;;;;;;50.75;33.65;;;;;;;;;;5097206;28;20118;-80
2022/01/29 02:26:31;;;;;;;45.42;31.65;;;;;;;;;;5115277;28;20043;-80
2022/01/29 02:28:57;;;;;;;53.15;33.30;;;;;;;;;;5097018;28;20122;-80
2022/01/29 02:31:23;;;;;;;51.30;34.22;;;;;;;;;;5097071;28;20039;-80
2022/01/29 02:33:49;;;;;;;54.22;33.25;;;;;;;;;;5113921;28;20118;-80
2022/01/29 02:36:15;;;;;;;51.42;35.17;;;;;;;;;;5115141;28;20046;-80
2022/01/29 02:38:41;;;;;;;52.75;34.95;;;;;;;;;;5114893;28;20123;-79
2022/01/29 02:41:08;;;;;;;50.97;32.45;;;;;;;;;;5114884;28;20043;-79
2022/01/29 02:43:40;;;;;;;65.68;38.72;;;;;;;;;;5115035;28;20082;-80
2022/01/29 02:46:53;;;;;;;50.50;32.08;;;;;;;;;;5114805;28;20551;-80
2022/01/29 02:48:53;;;;;;;58.85;34.42;;;;;;;;;;5103650;28;20047;-79
2022/01/29 02:51:20;;;;;;;57.50;37.03;;;;;;;;;;5114723;28;20480;-80
2022/01/29 02:53:46;;;;;;;58.13;36.67;;;;;;;;;;5096280;28;20383;-80
2022/01/29 02:56:12;;;;;;;53.92;33.75;;;;;;;;;;5114564;28;20039;-80
2022/01/29 02:58:39;;;;;;;56.03;33.47;;;;;;;;;;5114467;28;20052;-80
2022/01/29 03:01:06;;;;;;;63.53;35.08;;;;;;;;;;5096537;28;20043;-80
2022/01/29 03:03:32;;;;;;;62.95;34.95;;;;;;;;;;5114643;28;20090;-79
2022/01/29 03:05:58;;;;;;;62.60;35.88;;;;;;;;;;5114529;28;20031;-80
2022/01/29 03:08:24;;;;;;;61.35;33.05;;;;;;;;;;5114206;28;20035;-80
2022/01/29 03:10:50;;;;;;;56.17;31.42;;;;;;;;;;5114376;28;20036;-79
2022/01/29 03:13:17;;;;;;;63.90;35.42;;;;;;;;;;5114014;28;20045;-80
2022/01/29 03:15:43;;;;;;;56.47;34.42;;;;;;;;;;5114310;28;20141;-80
2022/01/29 03:18:09;;;;;;;57.53;33.85;;;;;;;;;;5114125;28;20122;-79
2022/01/29 03:20:35;;;;;;;58.90;35.22;;;;;;;;;;5114148;28;20048;-80
2022/01/29 03:23:01;;;;;;;57.47;32.67;;;;;;;;;;5113931;28;20083;-80
2022/01/29 03:25:28;;;;;;;62.42;35.42;;;;;;;;;;5113993;28;20044;-80
2022/01/29 03:27:54;;;;;;;55.38;33.33;;;;;;;;;;5113864;28;20044;-80
2022/01/29 03:30:20;;;;;;;57.97;32.08;;;;;;;;;;5113910;28;20035;-80
2022/01/29 03:32:46;;;;;;;55.95;29.98;;;;;;;;;;5114052;28;20043;-80
2022/01/29 03:35:12;;;;;;;56.88;30.55;;;;;;;;;;5095607;28;20046;-80
2022/01/29 03:37:39;;;;;;;55.25;30.40;;;;;;;;;;5095828;28;20075;-79
2022/01/29 03:40:08;;;;;;;62.33;32.05;;;;;;;;;;5113771;28;20047;-80
2022/01/29 03:42:39;;;;;;;57.45;33.42;;;;;;;;;;5095606;28;20046;-80
2022/01/29 03:45:07;;;;;;;62.92;33.53;;;;;;;;;;5113580;28;20066;-80
2022/01/29 03:47:34;;;;;;;57.20;32.05;;;;;;;;;;5113686;28;20439;-80
2022/01/29 03:50:00;;;;;;;56.08;32.30;;;;;;;;;;5113614;28;20078;-80
2022/01/29 03:52:26;;;;;;;53.78;29.73;;;;;;;;;;5113582;28;20079;-80
2022/01/29 03:54:52;;;;;;;56.92;31.73;;;;;;;;;;5113318;28;20130;-80
2022/01/29 03:57:18;;;;;;;58.88;33.97;;;;;;;;;;5113051;28;20468;-80
2022/01/29 03:59:44;;;;;;;49.60;27.98;;;;;;;;;;5095617;28;20086;-80
2022/01/29 04:02:11;;;;;;;59.58;31.27;;;;;;;;;;5113319;28;20043;-80
2022/01/29 04:04:37;;;;;;;59.58;30.73;;;;;;;;;;5113287;28;20071;-80
2022/01/29 04:07:10;;;;;;;56.28;29.95;;;;;;;;;;5095021;28;20451;-80
2022/01/29 04:09:37;;;;;;;55.22;29.60;;;;;;;;;;5095111;28;20082;-79
2022/01/29 04:12:03;;;;;;;53.00;29.20;;;;;;;;;;5113532;28;20051;-80
2022/01/29 04:14:37;;;;;;;50.50;29.60;;;;;;;;;;5113378;28;20425;-80
2022/01/29 04:17:04;;;;;;;50.95;28.77;;;;;;;;;;5113192;28;20047;-79
2022/01/29 04:19:31;;;;;;;51.20;28.05;;;;;;;;;;5113228;28;20085;-79
2022/01/29 04:21:57;;;;;;;52.58;28.63;;;;;;;;;;5094777;28;20448;-79
2022/01/29 04:24:23;;;;;;;51.67;28.88;;;;;;;;;;5113032;28;20043;-80
2022/01/29 04:26:49;;;;;;;48.38;28.42;;;;;;;;;;5113209;28;20075;-79
2022/01/29 04:29:16;;;;;;;51.10;29.48;;;;;;;;;;5095093;28;20043;-80
2022/01/29 04:34:20;;;;;;;50.47;27.30;;;;;;;;;;5112883;28;20466;-80
2022/01/29 04:36:46;;;;;;;51.03;29.08;;;;;;;;;;5112911;28;20044;-79
2022/01/29 04:39:12;;;;;;;49.00;27.73;;;;;;;;;;5094857;28;20061;-79
2022/01/29 04:41:38;;;;;;;49.45;28.42;;;;;;;;;;5112758;28;20045;-80
2022/01/29 04:44:05;;;;;;;49.50;27.38;;;;;;;;;;5112902;28;20046;-79
2022/01/29 04:46:31;;;;;;;49.58;26.58;;;;;;;;;;5112774;28;20079;-79
2022/01/29 04:48:57;;;;;;;51.22;28.02;;;;;;;;;;5112656;28;20050;-80
2022/01/29 04:51:23;;;;;;;48.08;26.52;;;;;;;;;;5112919;28;20042;-80
2022/01/29 04:53:50;;;;;;;42.70;27.02;;;;;;;;;;5112422;28;20057;-79
2022/01/29 04:56:16;;;;;;;43.17;26.88;;;;;;;;;;5113950;28;20157;-79
2022/01/29 04:58:43;;;;;;;44.00;25.58;;;;;;;;;;5116749;28;20130;-80
2022/01/29 05:01:09;;;;;;;44.63;26.65;;;;;;;;;;5116876;28;20039;-79
2022/01/29 05:03:35;;;;;;;45.72;26.23;;;;;;;;;;5116696;28;20383;-80
2022/01/29 05:06:03;;;;;;;42.70;25.67;;;;;;;;;;5117103;28;20449;-79
2022/01/29 05:08:30;;;;;;;41.83;25.45;;;;;;;;;;5116620;28;20048;-80
2022/01/29 05:10:56;;;;;;;42.17;24.83;;;;;;;;;;5116818;28;20158;-80
2022/01/29 05:13:26;;;;;;;44.72;25.50;;;;;;;;;;5116495;28;20044;-80
2022/01/29 05:27:00;;;;;;;36.60;23.40;;;;;;;;;;5116500;28;20050;-79
2022/01/29 05:29:30;;;;;;;38.67;21.65;;;;;;;;;;5098139;28;20468;-80
2022/01/29 05:31:57;;;;;;;42.58;24.17;;;;;;;;;;5116322;28;20047;-80
2022/01/29 05:34:23;;;;;;;42.92;24.15;;;;;;;;;;5116034;28;20046;-79
2022/01/29 05:36:49;;;;;;;43.00;24.42;;;;;;;;;;5115912;28;20421;-79
2022/01/29 05:39:16;;;;;;;39.50;22.50;;;;;;;;;;5097724;28;20499;-79
2022/01/29 05:41:42;;;;;;;40.20;25.73;;;;;;;;;;5098224;28;20122;-79
2022/01/29 05:44:08;;;;;;;41.30;24.73;;;;;;;;;;5115981;28;20071;-79
2022/01/29 05:46:34;;;;;;;42.30;23.92;;;;;;;;;;5116058;28;20088;-78
2022/01/29 05:49:01;;;;;;;39.72;24.50;;;;;;;;;;5097995;28;20122;-79
2022/01/29 05:51:29;;;;;;;39.33;22.63;;;;;;;;;;5115790;28;20043;-79
2022/01/29 05:53:57;;;;;;;37.83;22.95;;;;;;;;;;5115690;28;20051;-80
2022/01/29 05:56:23;;;;;;;41.67;24.10;;;;;;;;;;5097453;28;20047;-79
2022/01/29 05:58:49;;;;;;;36.17;23.83;;;;;;;;;;5115541;28;20088;-80
2022/01/29 06:01:16;;;;;;;35.85;22.48;;;;;;;;;;5097663;28;20517;-80
2022/01/29 06:03:42;;;;;;;35.95;22.75;;;;;;;;;;5115765;28;20122;-79
2022/01/29 06:06:08;;;;;;;32.88;22.33;;;;;;;;;;5115466;28;20039;-81
2022/01/29 06:08:34;;;;;;;38.75;23.02;;;;;;;;;;5114400;28;20472;-80
2022/01/29 06:11:00;;;;;;;38.15;22.45;;;;;;;;;;5097283;28;20054;-80
2022/01/29 06:13:26;;;;;;;39.42;23.83;;;;;;;;;;5115546;28;20043;-80
2022/01/29 06:15:53;;;;;;;38.92;23.73;;;;;;;;;;5115542;28;20047;-79
2022/01/29 06:18:20;;;;;;;43.55;25.45;;;;;;;;;;5115227;28;20557;-80
2022/01/29 06:20:51;;;;;;;44.75;24.52;;;;;;;;;;5115229;28;20039;-80
2022/01/29 06:23:38;;;;;;;38.55;23.48;;;;;;;;;;5115269;28;20040;-79
2022/01/29 06:26:06;;;;;;;38.58;24.05;;;;;;;;;;5115348;28;20090;-79
2022/01/29 06:28:33;;;;;;;36.25;23.38;;;;;;;;;;5115160;28;20052;-79
2022/01/29 06:30:59;;;;;;;37.60;23.15;;;;;;;;;;5115150;28;20096;-79
2022/01/29 06:33:25;;;;;;;40.13;22.40;;;;;;;;;;5115383;28;20039;-80
2022/01/29 06:35:52;;;;;;;38.33;23.33;;;;;;;;;;5115081;28;20051;-80
2022/01/29 06:38:18;;;;;;;37.70;23.67;;;;;;;;;;5115176;28;20047;-80
2022/01/29 06:40:44;;;;;;;33.60;21.55;;;;;;;;;;5097074;28;20051;-80
2022/01/29 06:43:11;;;;;;;33.50;21.55;;;;;;;;;;5114922;28;20098;-80
2022/01/29 06:45:38;;;;;;;35.42;21.77;;;;;;;;;;5114630;28;20505;-80
2022/01/29 06:48:04;;;;;;;32.25;22.02;;;;;;;;;;5115075;28;20163;-80
2022/01/29 06:50:30;;;;;;;36.83;22.23;;;;;;;;;;5096449;28;20383;-80
2022/01/29 06:52:56;;;;;;;32.50;19.50;;;;;;;;;;5114604;28;20039;-79
2022/01/29 06:55:23;;;;;;;29.67;19.38;;;;;;;;;;5114796;28;20047;-79
2022/01/29 06:57:49;;;;;;;31.85;19.63;;;;;;;;;;5114505;28;20055;-78
2022/01/29 07:00:16;;;;;;;27.38;17.23;;;;;;;;;;5114463;28;20521;-79
2022/01/29 07:02:42;;;;;;;28.77;18.02;;;;;;;;;;5114557;28;20044;-79
2022/01/29 07:05:09;;;;;;;29.13;18.20;;;;;;;;;;5114665;28;20050;-79
2022/01/29 07:07:35;;;;;;;25.85;15.75;;;;;;;;;;5114421;28;20043;-80
2022/01/29 07:10:02;;;;;;;29.60;15.45;;;;;;;;;;5096511;28;20048;-80
2022/01/29 07:12:28;;;;;;;25.45;16.55;;;;;;;;;;5096371;28;20090;-79
2022/01/29 07:14:54;;;;;;;28.00;15.60;;;;;;;;;;5113997;28;20052;-79
2022/01/29 07:17:23;;;;;;;25.50;15.93;;;;;;;;;;5114332;28;20040;-79
2022/01/29 07:19:50;;;;;;;24.92;15.52;;;;;;;;;;5113962;28;20069;-80
2022/01/29 07:22:16;;;;;;;25.08;15.20;;;;;;;;;;5114291;28;20069;-79
2022/01/29 07:24:43;;;;;;;29.08;15.20;;;;;;;;;;5114093;28;20047;-80
2022/01/29 07:27:09;;;;;;;26.15;15.10;;;;;;;;;;5113991;28;20126;-80
2022/01/29 07:29:35;;;;;;;25.63;15.48;;;;;;;;;;5115864;27;20122;-79
2022/01/29 07:32:01;;;;;;;22.10;13.60;;;;;;;;;;5134298;27;20054;-80
2022/01/29 07:34:28;;;;;;;28.42;14.82;;;;;;;;;;5115949;27;20083;-80
2022/01/29 07:36:55;;;;;;;26.45;15.90;;;;;;;;;;5134384;27;20407;-79
2022/01/29 07:39:22;;;;;;;24.73;14.35;;;;;;;;;;5133953;27;20046;-79
2022/01/29 07:41:48;;;;;;;25.42;16.00;;;;;;;;;;5134061;27;20039;-79
2022/01/29 07:44:15;;;;;;;22.75;14.30;;;;;;;;;;5134339;27;20476;-79
2022/01/29 07:46:41;;;;;;;23.83;15.65;;;;;;;;;;5126506;27;20540;-80
2022/01/29 07:49:08;;;;;;;25.25;14.55;;;;;;;;;;5104503;27;20110;-79
2022/01/29 07:51:34;;;;;;;22.23;14.45;;;;;;;;;;5097558;27;20039;-79
2022/01/29 07:54:00;;;;;;;21.23;13.98;;;;;;;;;;5133418;27;20360;-80
2022/01/29 07:56:27;;;;;;;21.90;14.43;;;;;;;;;;5115301;27;20051;-80
2022/01/29 07:58:53;;;;;;;24.40;14.38;;;;;;;;;;5133350;27;20051;-80
2022/01/29 08:01:19;;;;;;;19.23;12.10;;;;;;;;;;5133657;27;20096;-79
2022/01/29 08:03:50;;;;;;;23.77;12.48;;;;;;;;;;5133847;27;20096;-80
2022/01/29 08:06:17;;;;;;;18.65;13.20;;;;;;;;;;5133761;27;20049;-79
2022/01/29 08:08:43;;;;;;;20.77;14.23;;;;;;;;;;5133533;27;20471;-80
2022/01/29 08:11:10;;;;;;;27.05;14.07;;;;;;;;;;5133376;27;20391;-80
2022/01/29 08:13:36;;;;;;;24.33;14.85;;;;;;;;;;5115554;27;20039;-80
2022/01/29 08:16:02;;;;;;;24.95;15.55;;;;;;;;;;5133683;27;20167;-80
2022/01/29 08:18:29;;;;;;;21.95;14.85;;;;;;;;;;5133576;27;20035;-79
2022/01/29 08:20:55;;;;;;;21.48;15.02;;;;;;;;;;5133642;27;20454;-79
2022/01/29 08:23:21;;;;;;;26.95;15.93;;;;;;;;;;5133499;27;20450;-78
2022/01/29 08:25:48;;;;;;;24.30;15.65;;;;;;;;;;5133509;27;20043;-80
2022/01/29 08:28:14;;;;;;;23.58;14.88;;;;;;;;;;5133453;27;20039;-79
2022/01/29 08:30:40;;;;;;;24.08;14.30;;;;;;;;;;5132922;27;20130;-80
2022/01/29 08:33:07;;;;;;;25.83;14.02;;;;;;;;;;5133591;27;20039;-80
2022/01/29 08:35:33;;;;;;;19.17;12.93;;;;;;;;;;5133482;28;20054;-79
2022/01/29 08:38:00;;;;;;;19.65;11.90;;;;;;;;;;5133342;28;20058;-80
2022/01/29 08:40:26;;;;;;;27.45;14.32;;;;;;;;;;5133258;28;20611;-79
2022/01/29 08:42:53;;;;;;;23.17;14.52;;;;;;;;;;5133491;28;20118;-79
2022/01/29 08:45:19;;;;;;;25.23;12.60;;;;;;;;;;5115275;28;20047;-78
2022/01/29 08:47:45;;;;;;;22.90;13.45;;;;;;;;;;5115079;28;20035;-80
2022/01/29 08:50:12;;;;;;;19.08;12.77;;;;;;;;;;5133178;28;20104;-80
2022/01/29 08:52:39;;;;;;;20.98;12.75;;;;;;;;;;5114944;28;20046;-79
2022/01/29 08:55:06;;;;;;;19.83;11.63;;;;;;;;;;5115192;28;20122;-80
2022/01/29 08:57:32;;;;;;;19.00;11.20;;;;;;;;;;5133110;28;20487;-79
2022/01/29 08:59:59;;;;;;;24.88;12.73;;;;;;;;;;5133512;28;20085;-79
2022/01/29 09:02:26;;;;;;;15.02;9.60;;;;;;;;;;5115127;28;20380;-79
2022/01/29 09:04:53;;;;;;;22.52;11.50;;;;;;;;;;5133170;28;20126;-80
2022/01/29 09:07:19;;;;;;;21.08;10.27;;;;;;;;;;5132891;28;20043;-79
2022/01/29 09:09:46;;;;;;;19.75;10.88;;;;;;;;;;5114964;28;20047;-79
2022/01/29 09:12:13;;;;;;;18.95;9.38;;;;;;;;;;5132974;28;20043;-79
2022/01/29 09:14:40;;;;;;;16.83;9.07;;;;;;;;;;5133193;28;20441;-79
2022/01/29 09:17:06;;;;;;;16.20;8.65;;;;;;;;;;5133159;28;20043;-79
2022/01/29 09:19:32;;;;;;;15.27;7.88;;;;;;;;;;5132925;28;20387;-79
2022/01/29 09:21:59;;;;;;;18.52;8.40;;;;;;;;;;5132832;28;20118;-80
2022/01/29 09:24:25;;;;;;;16.23;7.55;;;;;;;;;;5114640;28;20050;-79
2022/01/29 09:26:51;;;;;;;12.60;6.93;;;;;;;;;;5115051;28;20043;-79
2022/01/29 09:29:17;;;;;;;13.02;6.90;;;;;;;;;;5114659;28;20361;-79
2022/01/29 09:31:43;;;;;;;12.95;7.20;;;;;;;;;;5133005;28;20043;-80
2022/01/29 09:34:09;;;;;;;13.20;7.22;;;;;;;;;;5132514;28;20108;-80
2022/01/29 09:36:35;;;;;;;13.73;7.00;;;;;;;;;;5132213;28;20058;-80
2022/01/29 09:39:02;;;;;;;15.35;6.75;;;;;;;;;;5132398;28;20051;-79
2022/01/29 09:41:28;;;;;;;13.02;6.35;;;;;;;;;;5132596;27;20051;-79
2022/01/29 09:43:55;;;;;;;15.82;7.28;;;;;;;;;;5136376;27;20047;-79
2022/01/29 09:46:22;;;;;;;17.85;7.22;;;;;;;;;;5136419;27;20399;-79
2022/01/29 09:48:48;;;;;;;16.65;7.22;;;;;;;;;;5136387;27;20193;-79
2022/01/29 09:51:15;;;;;;;15.25;7.05;;;;;;;;;;5136229;27;20057;-79
2022/01/29 09:53:43;;;;;;;14.00;7.18;;;;;;;;;;5136185;27;20168;-80
2022/01/29 09:56:13;;;;;;;13.07;6.78;;;;;;;;;;5136063;27;20039;-80
2022/01/29 09:58:40;;;;;;;13.50;7.20;;;;;;;;;;5136127;27;20103;-80
2022/01/29 10:01:06;;;;;;;15.80;6.53;;;;;;;;;;5136281;27;20051;-79
2022/01/29 10:03:32;;;;;;;12.18;6.15;;;;;;;;;;5136069;27;20039;-79
2022/01/29 10:06:00;;;;;;;12.65;5.88;;;;;;;;;;5136260;27;20453;-79
2022/01/29 10:08:27;;;;;;;12.63;6.00;;;;;;;;;;5136066;27;20050;-80
2022/01/29 10:10:53;;;;;;;14.55;6.10;;;;;;;;;;5136114;27;20043;-79
2022/01/29 10:13:28;;;;;;;14.45;5.55;;;;;;;;;;5136111;27;20042;-78
2022/01/29 10:16:13;;;;;;;12.18;5.22;;;;;;;;;;5135775;27;20492;-78
2022/01/29 10:18:40;;;;;;;11.15;4.90;;;;;;;;;;5117691;27;20114;-79
2022/01/29 10:21:08;;;;;;;14.82;6.03;;;;;;;;;;5117569;27;20099;-79
2022/01/29 10:23:34;;;;;;;13.05;4.95;;;;;;;;;;5135635;27;20047;-80
2022/01/29 10:26:01;;;;;;;13.52;5.22;;;;;;;;;;5135603;27;20111;-79
2022/01/29 10:28:28;;;;;;;14.18;4.90;;;;;;;;;;5135735;27;20042;-79
2022/01/29 10:30:55;;;;;;;16.33;5.13;;;;;;;;;;5135727;27;20126;-80
2022/01/29 10:33:29;;;;;;;12.75;4.95;;;;;;;;;;5135888;27;20043;-78
2022/01/29 10:35:56;;;;;;;11.27;4.43;;;;;;;;;;5135502;27;20047;-79
2022/01/29 10:38:26;;;;;;;10.15;4.25;;;;;;;;;;5116726;27;20047;-80
2022/01/29 10:41:11;;;;;;;13.20;4.50;;;;;;;;;;5135412;27;20047;-80
2022/01/29 10:43:58;;;;;;;11.32;4.63;;;;;;;;;;5135311;27;20425;-78
2022/01/29 10:46:29;;;;;;;12.60;4.75;;;;;;;;;;5135048;27;20433;-79
2022/01/29 10:48:55;;;;;;;10.73;4.15;;;;;;;;;;5135284;27;20043;-79
2022/01/29 10:51:21;;;;;;;12.93;3.83;;;;;;;;;;5135102;27;20039;-79
2022/01/29 10:53:48;;;;;;;10.35;4.68;;;;;;;;;;5134484;27;20046;-79
2022/01/29 10:56:14;;;;;;;16.08;4.60;;;;;;;;;;5135209;27;20159;-79
2022/01/29 10:58:44;;;;;;;11.77;4.25;;;;;;;;;;5134789;27;20066;-79
2022/01/29 11:01:24;;;;;;;11.27;3.85;;;;;;;;;;5134935;27;20533;-79
2022/01/29 11:03:54;;;;;;;11.63;4.55;;;;;;;;;;5116715;27;20043;-80
2022/01/29 11:06:23;;;;;;;13.27;4.25;;;;;;;;;;5134639;27;20047;-80
2022/01/29 11:08:49;;;;;;;9.80;3.83;;;;;;;;;;5116655;27;20045;-79
2022/01/29 11:11:16;;;;;;;9.90;3.53;;;;;;;;;;5134838;27;20050;-79
2022/01/29 11:13:43;;;;;;;11.18;3.85;;;;;;;;;;5134645;27;20144;-79
2022/01/29 11:16:09;;;;;;;8.95;3.67;;;;;;;;;;5116616;27;20126;-78
2022/01/29 11:18:36;;;;;;;14.00;4.18;;;;;;;;;;5116117;27;20042;-78
2022/01/29 11:21:02;;;;;;;11.50;3.70;;;;;;;;;;5134750;27;20043;-80
2022/01/29 11:23:29;;;;;;;10.25;3.25;;;;;;;;;;5134336;27;20040;-79
2022/01/29 11:25:57;;;;;;;10.35;3.15;;;;;;;;;;5134508;27;20039;-79
2022/01/29 11:28:26;;;;;;;12.73;3.40;;;;;;;;;;5134322;27;20043;-79
2022/01/29 11:31:13;;;;;;;10.63;3.08;;;;;;;;;;5134389;27;20068;-79
2022/01/29 11:33:58;;;;;;;12.80;3.63;;;;;;;;;;5133947;27;20074;-79
2022/01/29 11:36:44;;;;;;;12.10;3.67;;;;;;;;;;5115550;27;20077;-78
2022/01/29 11:39:30;;;;;;;10.20;2.97;;;;;;;;;;5119965;27;20507;-79
2022/01/29 11:42:12;;;;;;;10.55;2.92;;;;;;;;;;5134504;27;20074;-80
2022/01/29 11:44:38;;;;;;;;;;;;;;;;;;5134628;27;20038;-79
2022/01/29 11:47:23;;;;;;;10.80;2.50;;;;;;;;;;5116137;27;20280;-79
2022/01/29 11:49:49;;;;;;;10.50;3.08;;;;;;;;;;5133952;27;20395;-80
2022/01/29 11:52:22;;;;;;;12.98;3.22;;;;;;;;;;5116030;27;20122;-79
2022/01/29 11:54:59;;;;;;;9.25;2.60;;;;;;;;;;5134216;27;20058;-78
2022/01/29 11:57:25;;;;;;;10.18;2.20;;;;;;;;;;5133641;27;20035;-77
2022/01/29 11:59:51;;;;;;;12.40;2.72;;;;;;;;;;5133956;27;20090;-79
2022/01/29 12:02:18;;;;;;;14.07;2.90;;;;;;;;;;5133740;27;20043;-79
2022/01/29 12:04:58;;;;;;;11.20;3.00;;;;;;;;;;5133984;27;20039;-78
2022/01/29 12:07:39;;;;;;;10.68;3.00;;;;;;;;;;5115621;28;20113;-79
2022/01/29 12:10:14;;;;;;;10.30;2.70;;;;;;;;;;5133681;27;20043;-79
2022/01/29 12:12:41;;;;;;;9.68;2.40;;;;;;;;;;5115331;27;20054;-78
2022/01/29 12:15:10;;;;;;;9.27;2.65;;;;;;;;;;5133844;27;20054;-79
2022/01/29 12:17:46;;;;;;;11.07;2.80;;;;;;;;;;5133728;27;20045;-78
2022/01/29 12:20:13;;;;;;;9.77;2.42;;;;;;;;;;5133652;27;20054;-79
2022/01/29 12:22:40;;;;;;;14.15;2.80;;;;;;;;;;5133874;27;20050;-79
2022/01/29 12:25:07;;;;;;;10.27;2.38;;;;;;;;;;5115409;27;20053;-78
2022/01/29 12:27:48;;;;;;;10.52;2.50;;;;;;;;;;5133718;27;20046;-80
2022/01/29 12:30:20;;;;;;;11.20;2.80;;;;;;;;;;5133624;27;20476;-78
2022/01/29 12:32:46;;;;;;;;;;;;;;;;;;5134039;27;20441;-78
2022/01/29 12:35:12;;;;;;;9.80;2.70;;;;;;;;;;5115279;28;19958;-78
2022/01/29 12:37:38;;;;;;;11.40;2.78;;;;;;;;;;5133341;28;20094;-78
2022/01/29 12:40:18;;;;;;;8.82;2.38;;;;;;;;;;5133655;28;20046;-78
2022/01/29 12:42:46;;;;;;;10.75;2.92;;;;;;;;;;5133082;28;20047;-79
2022/01/29 12:45:12;;;;;;;9.80;2.47;;;;;;;;;;5115486;28;20099;-79
2022/01/29 12:47:39;;;;;;;10.45;2.50;;;;;;;;;;5115073;28;20049;-79
2022/01/29 12:50:05;;;;;;;12.75;2.53;;;;;;;;;;5133273;28;20081;-80
2022/01/29 12:52:31;;;;;;;7.90;2.28;;;;;;;;;;5133428;28;20043;-78
2022/01/29 12:54:59;;;;;;;10.27;2.10;;;;;;;;;;5133264;28;20506;-79
2022/01/29 12:57:26;;;;;;;10.85;2.20;;;;;;;;;;5132945;28;20426;-79
2022/01/29 12:59:52;;;;;;;9.05;1.98;;;;;;;;;;5133280;28;20055;-78
2022/01/29 13:02:22;;;;;;;10.25;2.35;;;;;;;;;;5114963;28;20050;-79
2022/01/29 13:04:48;;;;;;;11.38;2.30;;;;;;;;;;5133026;28;20597;-79
2022/01/29 13:07:17;;;;;;;13.52;2.83;;;;;;;;;;5115117;28;20043;-78
2022/01/29 13:09:44;;;;;;;11.35;2.08;;;;;;;;;;5132506;28;20050;-78
2022/01/29 13:12:17;;;;;;;10.23;2.25;;;;;;;;;;5132978;28;20167;-78
2022/01/29 13:14:43;;;;;;;9.90;2.85;;;;;;;;;;5133184;28;20043;-79
2022/01/29 13:17:11;;;;;;;9.80;2.70;;;;;;;;;;5133660;27;20039;-79
2022/01/29 13:19:43;;;;;;;15.10;2.47;;;;;;;;;;5118790;27;20061;-79
2022/01/29 13:22:09;;;;;;;12.60;2.40;;;;;;;;;;5101817;27;20082;-79
2022/01/29 13:24:44;;;;;;;10.60;2.72;;;;;;;;;;5137006;27;20118;-79
2022/01/29 13:27:10;;;;;;;13.15;2.85;;;;;;;;;;5136969;27;20078;-79
2022/01/29 13:29:44;;;;;;;17.05;2.60;;;;;;;;;;5136802;27;20078;-79
2022/01/29 13:32:12;;;;;;;13.43;2.63;;;;;;;;;;5136756;27;20046;-80
2022/01/29 13:34:40;;;;;;;9.90;2.15;;;;;;;;;;5136794;27;20039;-80
2022/01/29 13:37:35;;;;;;;13.50;3.35;;;;;;;;;;5136864;27;20039;-79
2022/01/29 13:40:03;;;;;;;12.90;2.55;;;;;;;;;;5119107;27;20047;-79
2022/01/29 13:42:32;;;;;;;12.65;2.58;;;;;;;;;;5118744;27;20046;-79
2022/01/29 13:45:12;;;;;;;12.90;3.13;;;;;;;;;;5136764;27;20046;-79
2022/01/29 13:48:01;;;;;;;11.90;2.60;;;;;;;;;;5136601;27;20047;-79
2022/01/29 13:50:28;;;;;;;13.35;2.85;;;;;;;;;;5118197;27;20054;-79
2022/01/29 13:53:18;;;;;;;10.63;2.53;;;;;;;;;;5136268;27;20388;-79
2022/01/29 13:55:59;;;;;;;12.73;2.63;;;;;;;;;;5107702;27;20063;-79
2022/01/29 13:58:26;;;;;;;12.10;2.95;;;;;;;;;;5136138;27;20062;-79
2022/01/29 14:00:58;;;;;;;11.90;2.90;;;;;;;;;;5118011;27;20095;-79
2022/01/29 14:03:43;;;;;;;11.93;3.05;;;;;;;;;;5118387;27;20078;-78
2022/01/29 14:06:19;;;;;;;10.40;2.50;;;;;;;;;;5136049;27;20046;-79
2022/01/29 14:08:47;;;;;;;11.60;2.35;;;;;;;;;;5117583;27;20399;-79
2022/01/29 14:11:16;;;;;;;14.07;3.38;;;;;;;;;;5117997;27;20483;-79
2022/01/29 14:13:42;;;;;;;11.48;2.90;;;;;;;;;;5135936;27;20047;-80
2022/01/29 14:16:08;;;;;;;12.93;3.28;;;;;;;;;;5135797;27;20459;-80
2022/01/29 14:18:34;;;;;;;11.25;3.03;;;;;;;;;;5135816;27;20039;-79
2022/01/29 14:21:01;;;;;;;12.75;2.55;;;;;;;;;;5135880;27;20491;-79
2022/01/29 14:23:27;;;;;;;12.70;2.92;;;;;;;;;;5135786;27;20091;-78
2022/01/29 14:25:53;;;;;;;10.80;2.53;;;;;;;;;;5135835;27;20043;-80
2022/01/29 14:28:21;;;;;;;10.43;2.30;;;;;;;;;;5116700;28;20031;-79
2022/01/29 14:30:47;;;;;;;6.50;1.77;;;;;;;;;;5135580;27;20175;-79
2022/01/29 14:33:13;;;;;;;12.30;2.58;;;;;;;;;;5135861;27;20118;-79
2022/01/29 14:35:39;;;;;;;12.63;2.60;;;;;;;;;;5135711;27;20050;-79
2022/01/29 14:38:05;;;;;;;15.18;3.33;;;;;;;;;;5117353;27;20088;-78
2022/01/29 14:40:31;;;;;;;10.20;2.35;;;;;;;;;;5135375;27;20042;-78
2022/01/29 14:42:58;;;;;;;12.82;2.88;;;;;;;;;;5135480;27;20054;-78